createdAt,value
2023-01-26T00:01:10.972Z,92.20
2023-01-26T00:03:37.890Z,92.30
2023-01-26T00:06:07.445Z,92.20
2023-01-26T00:08:38.410Z,92.10
2023-01-26T00:11:06.670Z,92.00
2023-01-26T00:13:34.418Z,91.90
2023-01-26T00:16:02.121Z,92.00
2023-01-26T00:18:29.768Z,91.90
2023-01-26T00:21:02.384Z,91.90
2023-01-26T00:23:30.846Z,91.80
2023-01-26T00:25:57.741Z,91.90
2023-01-26T00:28:24.753Z,92.00
2023-01-26T00:30:51.555Z,92.10
2023-01-26T00:33:18.385Z,92.30
2023-01-26T00:35:45.302Z,92.30
2023-01-26T00:38:14.857Z,92.40
2023-01-26T00:40:41.660Z,92.30
2023-01-26T00:43:08.472Z,92.20
2023-01-26T00:45:35.985Z,92.30
2023-01-26T00:48:02.937Z,92.20
2023-01-26T00:50:29.769Z,92.20
2023-01-26T00:52:56.621Z,92.30
2023-01-26T00:55:23.448Z,92.30
2023-01-26T00:57:50.470Z,92.50
2023-01-26T01:00:18.059Z,92.50
2023-01-26T01:02:44.872Z,92.50
2023-01-26T01:05:12.350Z,92.50
2023-01-26T01:07:39.175Z,92.40
2023-01-26T01:10:06.278Z,92.40
2023-01-26T01:12:33.109Z,92.30
2023-01-26T01:14:59.988Z,92.30
2023-01-26T01:17:27.105Z,92.30
2023-01-26T01:19:53.924Z,92.50
2023-01-26T01:22:20.753Z,92.50
2023-01-26T01:24:47.551Z,92.50
2023-01-26T01:27:14.353Z,92.50
2023-01-26T01:29:41.154Z,92.50
2023-01-26T01:32:07.967Z,92.50
2023-01-26T01:34:34.743Z,92.60
2023-01-26T01:37:01.590Z,92.70
2023-01-26T01:39:28.460Z,92.90
2023-01-26T01:41:55.270Z,93.00
2023-01-26T01:44:24.008Z,92.90
2023-01-26T01:47:02.756Z,92.90
2023-01-26T01:49:38.776Z,92.80
2023-01-26T01:52:17.703Z,92.90
2023-01-26T01:55:07.521Z,93.00
2023-01-26T01:57:47.072Z,93.00
2023-01-26T02:00:20.306Z,93.10
2023-01-26T02:03:14.629Z,93.00
2023-01-26T02:05:56.013Z,93.30
2023-01-26T02:08:27.724Z,93.40
2023-01-26T02:10:57.322Z,93.30
2023-01-26T02:13:24.894Z,93.30
2023-01-26T02:15:52.103Z,93.30
2023-01-26T02:18:19.048Z,93.60
2023-01-26T02:20:50.764Z,93.70
2023-01-26T02:23:42.577Z,93.60
2023-01-26T02:26:16.539Z,93.50
2023-01-26T02:28:44.799Z,93.50
2023-01-26T02:31:12.904Z,93.60
2023-01-26T02:33:40.954Z,93.70
2023-01-26T02:36:14.790Z,93.90
2023-01-26T02:38:49.095Z,94.10
2023-01-26T02:41:37.566Z,94.20
2023-01-26T02:44:07.166Z,94.00
2023-01-26T02:46:34.103Z,93.80
2023-01-26T02:49:19.312Z,94.00
2023-01-26T02:51:46.126Z,93.90
2023-01-26T02:54:33.156Z,93.80
2023-01-26T02:57:00.133Z,93.70
2023-01-26T02:59:27.026Z,93.70
2023-01-26T03:01:56.278Z,93.60
2023-01-26T03:04:23.256Z,93.70
2023-01-26T03:06:50.192Z,93.60
2023-01-26T03:09:17.022Z,93.60
2023-01-26T03:11:43.836Z,94.00
2023-01-26T03:14:15.825Z,94.40
2023-01-26T03:16:42.834Z,94.50
2023-01-26T03:19:31.585Z,94.40
2023-01-26T03:22:17.698Z,94.40
2023-01-26T03:25:03.143Z,94.40
2023-01-26T03:27:43.347Z,94.60
2023-01-26T03:30:11.188Z,94.80
2023-01-26T03:32:38.361Z,95.00
2023-01-26T03:35:05.639Z,95.40
2023-01-26T03:37:37.035Z,95.70
2023-01-26T03:40:23.375Z,96.10
2023-01-26T03:43:08.954Z,96.20
2023-01-26T03:45:54.452Z,96.20
2023-01-26T03:48:39.854Z,96.30
2023-01-26T03:51:25.410Z,96.20
2023-01-26T03:54:10.873Z,96.00
2023-01-26T03:56:37.685Z,95.90
2023-01-26T03:59:09.694Z,96.50
2023-01-26T04:01:41.699Z,96.70
2023-01-26T04:04:29.728Z,96.70
2023-01-26T04:07:15.194Z,96.80
2023-01-26T04:09:41.948Z,96.70
2023-01-26T04:12:10.496Z,96.60
2023-01-26T04:14:56.067Z,96.30
2023-01-26T04:17:41.625Z,96.40
2023-01-26T04:20:27.670Z,96.80
2023-01-26T04:22:54.432Z,96.80
2023-01-26T04:25:22.089Z,96.50
2023-01-26T04:27:48.935Z,96.50
2023-01-26T04:30:17.430Z,96.70
2023-01-26T04:32:46.171Z,96.80
2023-01-26T04:35:13.381Z,96.80
2023-01-26T04:37:40.363Z,96.50
2023-01-26T04:40:08.053Z,96.40
2023-01-26T04:42:34.880Z,96.60
2023-01-26T04:45:01.653Z,97.10
2023-01-26T04:47:29.368Z,97.40
2023-01-26T04:49:56.308Z,97.30
2023-01-26T04:52:23.083Z,97.50
2023-01-26T04:54:49.836Z,97.70
2023-01-26T04:57:16.743Z,97.80
2023-01-26T04:59:43.589Z,97.70
2023-01-26T05:02:10.811Z,97.60
2023-01-26T05:04:37.906Z,97.70
2023-01-26T05:07:04.683Z,97.40
2023-01-26T05:09:31.467Z,97.40
2023-01-26T05:12:18.186Z,97.30
2023-01-26T05:14:44.975Z,97.30
2023-01-26T05:17:12.868Z,97.50
2023-01-26T05:19:39.639Z,97.20
2023-01-26T05:22:06.444Z,97.00
2023-01-26T05:24:33.258Z,96.90
2023-01-26T05:27:21.399Z,96.90
2023-01-26T05:29:48.928Z,96.80
2023-01-26T05:32:15.706Z,96.70
2023-01-26T05:34:42.513Z,97.00
2023-01-26T05:37:09.351Z,97.00
2023-01-26T05:39:36.147Z,97.00
2023-01-26T05:42:03.403Z,97.10
2023-01-26T05:44:30.176Z,97.40
2023-01-26T05:46:57.919Z,97.50
2023-01-26T05:49:24.713Z,97.20
2023-01-26T05:51:51.593Z,97.20
2023-01-26T05:54:18.439Z,97.30
2023-01-26T05:56:45.178Z,97.70
2023-01-26T05:59:11.943Z,97.90
2023-01-26T06:01:39.387Z,98.20
2023-01-26T06:04:06.197Z,98.20
2023-01-26T06:06:33.104Z,98.00
2023-01-26T06:08:59.883Z,97.70
2023-01-26T06:11:26.638Z,97.70
2023-01-26T06:13:53.352Z,97.40
2023-01-26T06:16:20.132Z,97.60
2023-01-26T06:18:50.195Z,97.70
2023-01-26T06:21:17.198Z,97.60
2023-01-26T06:23:46.041Z,97.70
2023-01-26T06:26:12.744Z,97.70
2023-01-26T06:28:39.935Z,97.60
2023-01-26T06:31:08.432Z,97.90
2023-01-26T06:33:37.442Z,97.80
2023-01-26T06:36:06.281Z,97.70
2023-01-26T06:38:33.117Z,97.50
2023-01-26T06:41:04.536Z,97.40
2023-01-26T06:43:35.416Z,97.40
2023-01-26T06:46:04.001Z,97.30
2023-01-26T06:48:32.939Z,97.20
2023-01-26T06:51:37.598Z,97.50
2023-01-26T06:54:04.568Z,97.70
2023-01-26T06:56:35.796Z,97.70
2023-01-26T06:59:02.505Z,97.80
2023-01-26T07:01:37.192Z,98.00
2023-01-26T07:04:04.205Z,98.00
2023-01-26T07:06:31.192Z,97.60
2023-01-26T07:08:57.892Z,97.40
2023-01-26T07:11:25.684Z,97.40
2023-01-26T07:13:52.645Z,97.40
2023-01-26T07:16:19.579Z,97.30
2023-01-26T07:18:46.336Z,97.10
2023-01-26T07:21:15.540Z,97.00
2023-01-26T07:23:42.515Z,96.90
2023-01-26T07:26:09.239Z,96.90
2023-01-26T07:28:36.295Z,97.00
2023-01-26T07:31:06.042Z,97.30
2023-01-26T07:33:33.725Z,97.40
2023-01-26T07:36:00.999Z,97.40
2023-01-26T07:38:30.954Z,97.40
2023-01-26T07:40:57.929Z,97.60
2023-01-26T07:43:24.817Z,97.90
2023-01-26T07:45:53.957Z,98.20
2023-01-26T07:48:23.084Z,98.00
2023-01-26T07:50:50.622Z,97.70
2023-01-26T07:53:22.828Z,97.80
2023-01-26T07:55:49.669Z,98.10
2023-01-26T07:58:18.593Z,98.00
2023-01-26T08:00:48.172Z,97.90
2023-01-26T08:03:14.979Z,98.00
2023-01-26T08:05:43.212Z,98.00
2023-01-26T08:08:10.437Z,97.90
2023-01-26T08:10:37.187Z,97.80
2023-01-26T08:13:04.023Z,97.80
2023-01-26T08:15:30.791Z,98.00
2023-01-26T08:17:57.771Z,97.80
2023-01-26T08:20:24.472Z,97.50
2023-01-26T08:22:51.232Z,97.40
2023-01-26T08:25:17.956Z,97.40
2023-01-26T08:27:44.678Z,97.60
2023-01-26T08:30:12.690Z,97.50
2023-01-26T08:32:39.683Z,97.40
2023-01-26T08:35:06.802Z,97.30
2023-01-26T08:37:34.100Z,97.50
2023-01-26T08:40:00.917Z,97.30
2023-01-26T08:42:27.633Z,97.40
2023-01-26T08:44:54.424Z,97.40
2023-01-26T08:47:21.142Z,97.40
2023-01-26T08:49:47.884Z,97.30
2023-01-26T08:52:14.726Z,97.00
2023-01-26T08:54:41.405Z,96.90
2023-01-26T08:57:08.166Z,97.10
2023-01-26T08:59:34.937Z,97.40
2023-01-26T09:02:01.817Z,97.30
2023-01-26T09:04:28.610Z,97.10
2023-01-26T09:06:55.404Z,97.10
2023-01-26T09:09:22.140Z,97.30
2023-01-26T09:11:48.864Z,97.60
2023-01-26T09:14:15.598Z,98.00
2023-01-26T09:16:42.413Z,98.20
2023-01-26T09:19:09.167Z,98.00
2023-01-26T09:21:35.959Z,98.00
2023-01-26T09:24:02.802Z,97.80
2023-01-26T09:26:30.632Z,97.70
2023-01-26T09:28:57.630Z,97.60
2023-01-26T09:31:24.534Z,97.30
2023-01-26T09:33:51.738Z,97.30
2023-01-26T09:36:19.047Z,97.00
2023-01-26T09:38:45.892Z,97.30
2023-01-26T09:41:41.516Z,97.20
2023-01-26T09:44:10.874Z,97.00
2023-01-26T09:46:55.520Z,96.60
2023-01-26T09:49:50.188Z,97.10
2023-01-26T09:52:43.624Z,97.10
2023-01-26T09:55:17.345Z,96.90
2023-01-26T09:57:50.992Z,96.60
2023-01-26T10:00:30.246Z,96.80
2023-01-26T10:03:20.372Z,96.80
2023-01-26T10:06:13.709Z,96.80
2023-01-26T10:08:42.726Z,97.20
2023-01-26T10:11:44.147Z,96.70
2023-01-26T10:14:14.291Z,96.70
2023-01-26T10:16:45.158Z,96.60
2023-01-26T10:19:22.272Z,96.10
2023-01-26T10:21:53.076Z,96.00
2023-01-26T10:24:23.438Z,96.10
2023-01-26T10:26:53.317Z,95.70
2023-01-26T10:29:20.635Z,95.70
2023-01-26T10:31:47.396Z,95.90
2023-01-26T10:34:17.745Z,96.20
2023-01-26T10:36:46.462Z,96.20
2023-01-26T10:39:15.675Z,96.10
2023-01-26T10:42:00.815Z,95.30
2023-01-26T10:44:34.563Z,95.50
2023-01-26T10:47:19.783Z,95.50
2023-01-26T10:49:46.492Z,95.40
2023-01-26T10:52:27.858Z,95.00
2023-01-26T10:55:20.980Z,94.80
2023-01-26T10:57:47.896Z,94.90
2023-01-26T11:00:29.909Z,94.70
2023-01-26T11:03:13.286Z,94.30
2023-01-26T11:05:40.131Z,94.50
2023-01-26T11:08:37.200Z,94.60
2023-01-26T11:11:06.843Z,94.90
2023-01-26T11:13:33.786Z,94.90
2023-01-26T11:16:14.757Z,94.80
2023-01-26T11:19:12.390Z,94.90
2023-01-26T11:21:44.888Z,94.70
2023-01-26T11:24:21.106Z,94.70
2023-01-26T11:27:16.045Z,94.60
2023-01-26T11:29:42.831Z,94.80
2023-01-26T11:32:18.739Z,94.80
2023-01-26T11:34:57.387Z,95.00
2023-01-26T11:37:39.322Z,94.90
2023-01-26T11:40:22.641Z,94.90
2023-01-26T11:43:06.968Z,95.10
2023-01-26T11:46:22.102Z,94.80
2023-01-26T11:48:58.220Z,94.70
2023-01-26T11:52:17.131Z,94.60
2023-01-26T11:57:17.781Z,94.80
2023-01-26T11:59:58.551Z,94.90
2023-01-26T12:02:34.324Z,94.80
2023-01-26T12:05:26.708Z,95.20
2023-01-26T12:08:12.129Z,95.40
2023-01-26T12:10:53.860Z,95.60
2023-01-26T12:13:42.829Z,95.70
2023-01-26T12:16:36.119Z,95.50
2023-01-26T12:19:14.850Z,95.50
2023-01-26T12:21:45.583Z,95.00
2023-01-26T12:24:54.302Z,95.20
2023-01-26T12:27:29.649Z,95.40
2023-01-26T12:30:20.368Z,95.40
2023-01-26T12:32:48.282Z,95.60
2023-01-26T12:35:19.621Z,95.90
2023-01-26T12:38:16.992Z,96.20
2023-01-26T12:40:52.483Z,96.40
2023-01-26T12:43:34.217Z,96.20
2023-01-26T12:46:04.291Z,96.10
2023-01-26T12:48:39.310Z,96.00
2023-01-26T12:51:11.658Z,95.90
2023-01-26T12:53:47.420Z,95.70
2023-01-26T12:56:26.072Z,96.00
2023-01-26T12:58:55.331Z,96.60
2023-01-26T13:01:24.435Z,96.50
2023-01-26T13:03:54.203Z,96.20
2023-01-26T13:06:28.678Z,96.40
2023-01-26T13:09:21.642Z,96.70
2023-01-26T13:11:52.839Z,96.70
2023-01-26T13:14:25.816Z,96.60
2023-01-26T13:16:52.752Z,96.60
2023-01-26T13:19:44.507Z,96.80
2023-01-26T13:22:26.113Z,96.80
2023-01-26T13:24:55.915Z,97.00
2023-01-26T13:27:33.829Z,97.00
2023-01-26T13:30:01.473Z,97.20
2023-01-26T13:32:31.186Z,97.00
2023-01-26T13:35:00.737Z,97.10
2023-01-26T13:37:44.529Z,97.20
2023-01-26T13:40:24.833Z,97.20
2023-01-26T13:43:29.817Z,96.80
2023-01-26T13:46:14.849Z,97.00
2023-01-26T13:48:56.048Z,97.20
2023-01-26T13:51:46.829Z,97.40
2023-01-26T13:54:15.427Z,97.10
2023-01-26T13:56:58.953Z,97.60
2023-01-26T13:59:25.849Z,98.10
2023-01-26T14:01:55.508Z,98.30
2023-01-26T14:04:28.234Z,98.10
2023-01-26T14:07:15.604Z,98.50
2023-01-26T14:10:08.397Z,98.70
2023-01-26T14:12:41.925Z,99.00
2023-01-26T14:15:23.737Z,99.10
2023-01-26T14:18:01.990Z,99.00
2023-01-26T14:20:35.383Z,98.70
2023-01-26T14:23:21.131Z,98.80
2023-01-26T14:26:01.807Z,98.80
2023-01-26T14:28:37.410Z,98.70
2023-01-26T14:31:20.549Z,98.60
2023-01-26T14:33:58.802Z,98.60
2023-01-26T14:36:33.144Z,99.00
2023-01-26T14:39:01.171Z,99.30
2023-01-26T14:41:31.796Z,99.50
2023-01-26T14:44:05.818Z,99.60
2023-01-26T14:46:46.619Z,99.90
2023-01-26T14:49:20.718Z,99.90
2023-01-26T14:51:57.087Z,99.50
2023-01-26T14:54:31.342Z,99.90
2023-01-26T14:57:00.406Z,99.90
2023-01-26T14:59:41.857Z,99.90
2023-01-26T15:02:20.566Z,99.90
2023-01-26T15:05:11.674Z,99.90
2023-01-26T15:07:43.517Z,99.90
2023-01-26T15:10:27.390Z,99.90
2023-01-26T15:13:11.206Z,99.90
2023-01-26T15:15:43.892Z,99.90
2023-01-26T15:18:13.613Z,99.90
2023-01-26T15:20:40.620Z,99.90
2023-01-26T15:23:35.767Z,99.90
2023-01-26T15:26:13.069Z,99.90
2023-01-26T15:28:40.055Z,99.90
2023-01-26T15:31:07.579Z,99.90
2023-01-26T15:33:44.385Z,99.90
2023-01-26T15:36:58.917Z,99.90
2023-01-26T15:39:39.499Z,99.90
2023-01-26T15:42:21.035Z,99.90
2023-01-26T15:44:47.751Z,99.90
2023-01-26T15:47:14.747Z,99.90
2023-01-26T15:49:42.691Z,99.90
2023-01-26T15:52:13.705Z,99.90
2023-01-26T15:54:40.690Z,99.90
2023-01-26T15:57:25.932Z,99.90
2023-01-26T15:59:52.643Z,99.90
2023-01-26T16:02:21.041Z,99.90
2023-01-26T16:04:48.322Z,99.90
2023-01-26T16:07:17.847Z,99.90
2023-01-26T16:09:44.967Z,99.90
2023-01-26T16:12:31.309Z,99.90
2023-01-26T16:30:01.027Z,99.90
2023-01-26T16:32:30.098Z,99.90
2023-01-26T16:34:56.879Z,99.90
2023-01-26T16:37:23.598Z,99.90
2023-01-26T16:39:51.388Z,99.90
2023-01-26T16:42:19.985Z,99.90
2023-01-26T16:44:47.381Z,99.90
2023-01-26T16:47:14.191Z,99.90
2023-01-26T16:49:40.925Z,99.90
2023-01-26T16:52:09.245Z,99.90
2023-01-26T16:54:36.076Z,99.90
2023-01-26T16:57:02.980Z,99.90
2023-01-26T16:59:29.867Z,99.90
2023-01-26T17:01:57.136Z,99.90
2023-01-26T17:04:23.949Z,99.90
2023-01-26T17:06:50.672Z,99.90
2023-01-26T17:09:17.425Z,99.90
2023-01-26T17:11:44.196Z,99.90
2023-01-26T17:14:12.687Z,99.90
2023-01-26T17:16:39.663Z,99.90
2023-01-26T17:19:08.994Z,99.90
2023-01-26T17:21:36.281Z,99.90
2023-01-26T17:24:03.224Z,99.90
2023-01-26T17:26:30.073Z,99.90
2023-01-26T17:28:56.870Z,99.90
2023-01-26T17:31:24.793Z,99.90
2023-01-26T17:33:51.627Z,99.90
2023-01-26T17:36:19.535Z,99.90
2023-01-26T17:38:48.093Z,99.90
2023-01-26T17:41:15.397Z,99.90
2023-01-26T17:43:43.150Z,99.90
2023-01-26T17:46:17.840Z,99.90
2023-01-26T17:48:45.917Z,99.90
2023-01-26T17:51:19.203Z,99.90
2023-01-26T17:53:49.788Z,99.90
2023-01-26T17:56:18.950Z,99.90
2023-01-26T17:58:53.724Z,99.90
2023-01-26T18:01:22.074Z,99.90
2023-01-26T18:03:49.140Z,99.90
2023-01-26T18:06:16.962Z,99.90
2023-01-26T18:08:46.168Z,99.90
2023-01-26T18:11:15.547Z,99.90
2023-01-26T18:13:47.370Z,99.90
2023-01-26T18:16:19.346Z,99.90
2023-01-26T18:18:47.091Z,99.90
2023-01-26T18:21:19.688Z,99.90
2023-01-26T18:23:51.802Z,99.90
2023-01-26T18:26:21.670Z,99.90
2023-01-26T18:28:49.268Z,99.90
2023-01-26T18:31:19.003Z,99.90
2023-01-26T18:33:46.353Z,99.90
2023-01-26T18:36:15.321Z,99.90
2023-01-26T18:38:43.974Z,99.90
2023-01-26T18:41:12.731Z,99.90
2023-01-26T18:43:39.930Z,99.90
2023-01-26T18:46:07.066Z,99.90
2023-01-26T18:48:35.196Z,99.90
2023-01-26T18:51:03.246Z,99.90
2023-01-26T18:53:31.467Z,99.90
2023-01-26T18:56:05.725Z,99.90
2023-01-26T18:58:33.167Z,99.90
2023-01-26T19:01:10.359Z,99.90
2023-01-26T19:03:41.718Z,99.90
2023-01-26T19:06:09.520Z,99.90
2023-01-26T19:08:36.239Z,99.90
2023-01-26T19:11:08.672Z,99.90
2023-01-26T19:13:35.363Z,99.90
2023-01-26T19:16:02.152Z,99.90
2023-01-26T19:18:34.032Z,99.90
2023-01-26T19:21:02.972Z,99.90
2023-01-26T19:23:29.897Z,99.90
2023-01-26T19:25:56.693Z,99.90
2023-01-26T19:28:24.436Z,99.90
2023-01-26T19:30:51.203Z,99.90
2023-01-26T19:33:24.161Z,99.90
2023-01-26T19:35:55.467Z,99.90
2023-01-26T19:38:23.192Z,99.90
2023-01-26T19:40:52.739Z,99.90
2023-01-26T19:43:28.209Z,99.90
2023-01-26T19:46:14.100Z,99.90
2023-01-26T19:48:54.867Z,99.90
2023-01-26T19:51:25.241Z,99.90
2023-01-26T19:54:03.491Z,99.90
2023-01-26T19:56:35.072Z,99.90
2023-01-26T19:59:04.283Z,99.90
2023-01-26T20:01:32.269Z,99.90
2023-01-26T20:04:05.515Z,99.90
2023-01-26T20:06:40.776Z,99.90
2023-01-26T20:09:08.698Z,99.90
2023-01-26T20:11:35.602Z,99.90
2023-01-26T20:14:41.507Z,99.90
2023-01-26T20:17:13.273Z,99.90
2023-01-26T20:19:39.981Z,99.90
2023-01-26T20:22:08.828Z,99.90
2023-01-26T20:24:35.976Z,99.90
2023-01-26T20:27:02.895Z,99.90
2023-01-26T20:29:29.700Z,99.90
2023-01-26T20:31:56.620Z,99.90
2023-01-26T20:34:24.507Z,99.90
2023-01-26T20:36:51.679Z,99.90
2023-01-26T20:39:24.473Z,99.90
2023-01-26T20:41:51.953Z,99.90
2023-01-26T20:44:18.863Z,99.90
2023-01-26T20:46:45.880Z,99.90
2023-01-26T20:49:16.067Z,99.90
2023-01-26T20:51:45.261Z,99.90
2023-01-26T20:54:20.247Z,99.90
2023-01-26T20:56:48.055Z,99.90
2023-01-26T20:59:14.809Z,99.90
2023-01-26T21:01:41.531Z,99.90
2023-01-26T21:04:08.365Z,99.90
2023-01-26T21:06:36.205Z,99.90
2023-01-26T21:09:03.752Z,99.90
2023-01-26T21:11:31.587Z,99.90
2023-01-26T21:14:01.072Z,99.90
2023-01-26T21:16:28.598Z,99.90
2023-01-26T21:18:55.770Z,99.90
2023-01-26T21:21:23.414Z,99.90
2023-01-26T21:23:55.250Z,99.90
2023-01-26T21:26:24.465Z,99.90
2023-01-26T21:28:56.623Z,99.90
2023-01-26T21:31:25.692Z,99.90
2023-01-26T21:33:53.268Z,99.90
2023-01-26T21:36:25.765Z,99.90
2023-01-26T21:38:52.973Z,99.90
2023-01-26T21:41:47.217Z,99.90
2023-01-26T21:44:16.506Z,99.90
2023-01-26T21:46:45.940Z,99.90
2023-01-26T21:49:14.563Z,99.90
2023-01-26T21:51:59.956Z,99.90
2023-01-26T21:54:29.991Z,99.90
2023-01-26T21:57:29.338Z,99.90
2023-01-26T22:00:02.057Z,99.90
2023-01-26T22:02:37.983Z,99.90
2023-01-26T22:05:05.045Z,99.90
2023-01-26T22:07:32.269Z,99.90
2023-01-26T22:09:59.027Z,99.90
2023-01-26T22:12:25.872Z,99.90
2023-01-26T22:14:52.683Z,99.90
2023-01-26T22:17:19.426Z,99.90
2023-01-26T22:19:46.512Z,99.90
2023-01-26T22:22:13.315Z,99.90
2023-01-26T22:24:40.060Z,99.90
2023-01-26T22:27:08.289Z,99.90
2023-01-26T22:29:35.481Z,99.90
2023-01-26T22:32:02.685Z,99.90
2023-01-26T22:34:29.509Z,99.90
2023-01-26T22:36:56.197Z,99.90
2023-01-26T22:39:22.972Z,99.90
2023-01-26T22:41:49.723Z,99.90
2023-01-26T22:44:16.522Z,99.90
2023-01-26T22:46:43.237Z,99.90
2023-01-26T22:49:10.155Z,99.90
2023-01-26T22:51:37.548Z,99.90
2023-01-26T22:54:04.816Z,99.90
2023-01-26T22:56:31.632Z,99.90
2023-01-26T22:59:00.649Z,99.90
2023-01-26T23:01:32.539Z,99.90
2023-01-26T23:04:00.622Z,99.90
2023-01-26T23:06:28.226Z,99.90
2023-01-26T23:08:55.570Z,99.90
2023-01-26T23:11:27.904Z,99.90
2023-01-26T23:13:56.189Z,99.90
2023-01-26T23:16:23.956Z,99.90
2023-01-26T23:18:52.350Z,99.90
2023-01-26T23:21:19.785Z,99.90
2023-01-26T23:23:46.709Z,99.90
2023-01-26T23:26:13.422Z,99.90
2023-01-26T23:28:42.605Z,99.90
2023-01-26T23:31:10.628Z,99.90
2023-01-26T23:33:38.801Z,99.90
2023-01-26T23:36:06.930Z,99.90
2023-01-26T23:38:33.779Z,99.90
2023-01-26T23:41:00.662Z,99.90
2023-01-26T23:43:27.765Z,99.90
2023-01-26T23:45:56.537Z,99.90
2023-01-26T23:48:24.428Z,99.90
2023-01-26T23:50:58.573Z,99.90
2023-01-26T23:53:25.973Z,99.90
2023-01-26T23:55:52.975Z,99.90
2023-01-26T23:58:20.138Z,99.90
